createdAt,value
2019-05-16T05:14:00.976Z,10.86
2019-05-16T05:15:01.389Z,10.92
2019-05-16T05:16:01.371Z,10.92
2019-05-16T05:17:01.448Z,10.93
2019-05-16T05:18:00.596Z,10.89
2019-05-16T05:19:00.336Z,10.89
2019-05-16T05:20:01.065Z,10.86
2019-05-16T05:21:00.962Z,10.89
2019-05-16T05:22:01.287Z,10.93
2019-05-16T05:23:00.444Z,10.93
2019-05-16T05:24:00.099Z,10.86
2019-05-16T05:25:00.170Z,10.81
2019-05-16T05:26:00.287Z,10.84
2019-05-16T05:26:59.834Z,10.90
2019-05-16T05:28:00.557Z,10.86
2019-05-16T05:28:59.800Z,10.92
2019-05-16T05:30:01.097Z,10.93
2019-05-16T05:30:59.782Z,10.86
2019-05-16T05:32:04.182Z,10.93
2019-05-16T05:33:00.719Z,10.96
2019-05-16T05:34:01.264Z,10.93
2019-05-16T05:34:59.822Z,10.94
2019-05-16T05:36:01.177Z,10.90
2019-05-16T05:37:00.318Z,10.89
2019-05-16T05:38:00.379Z,10.96
2019-05-16T05:39:09.116Z,10.93
2019-05-16T05:40:23.453Z,10.85
2019-05-16T05:41:23.440Z,10.89
2019-05-16T05:42:23.428Z,10.94
2019-05-16T05:43:23.426Z,10.94
2019-05-16T05:44:23.413Z,10.96
2019-05-16T05:45:23.396Z,11.00
2019-05-16T05:46:23.385Z,11.03
2019-05-16T05:47:23.374Z,11.03
2019-05-16T05:48:23.366Z,11.14
2019-05-16T05:49:23.351Z,11.11
2019-05-16T05:50:23.343Z,11.28
2019-05-16T05:51:23.333Z,11.31
2019-05-16T05:52:23.325Z,11.25
2019-05-16T05:53:23.306Z,11.31
2019-05-16T05:54:23.298Z,11.30
2019-05-16T05:55:23.302Z,11.34
2019-05-16T05:56:23.275Z,11.45
2019-05-16T05:57:23.269Z,11.41
2019-05-16T05:58:23.251Z,11.36
2019-05-16T05:59:23.246Z,11.45
2019-05-16T06:00:23.228Z,11.45
2019-05-16T06:01:23.230Z,11.46
2019-05-16T06:02:23.207Z,11.40
2019-05-16T06:03:23.417Z,11.54
2019-05-16T06:04:23.190Z,11.51
2019-05-16T06:05:23.178Z,11.52
2019-05-16T06:06:23.170Z,11.56
2019-05-16T06:07:23.153Z,11.45
2019-05-16T06:08:23.138Z,11.51
2019-05-16T06:09:28.899Z,11.49
2019-05-16T06:10:50.105Z,11.59
2019-05-16T06:11:50.050Z,11.56
2019-05-16T06:12:49.861Z,11.49
2019-05-16T06:13:49.814Z,11.52
2019-05-16T06:14:50.338Z,11.48
2019-05-16T06:15:47.541Z,11.51
2019-05-16T06:16:47.528Z,11.54
2019-05-16T06:17:47.519Z,11.62
2019-05-16T06:18:47.509Z,11.45
2019-05-16T06:19:49.615Z,11.56
2019-05-16T06:20:47.488Z,11.61
2019-05-16T06:21:47.481Z,11.56
2019-05-16T06:22:47.463Z,11.49
2019-05-16T06:23:47.455Z,11.48
2019-05-16T06:24:47.441Z,11.54
2019-05-16T06:25:50.101Z,11.49
2019-05-16T06:26:47.419Z,11.58
2019-05-16T06:27:47.407Z,11.52
2019-05-16T06:28:47.397Z,11.49
2019-05-16T06:29:49.600Z,11.48
2019-05-16T06:30:47.376Z,11.52
2019-05-16T06:31:49.530Z,11.61
2019-05-16T06:32:47.354Z,11.61
2019-05-16T06:33:50.034Z,11.67
2019-05-16T06:34:47.333Z,11.64
2019-05-16T06:35:47.318Z,11.61
2019-05-16T06:36:47.307Z,11.66
2019-05-16T06:37:49.786Z,11.84
2019-05-16T06:38:49.634Z,11.70
2019-05-16T06:39:47.275Z,11.79
2019-05-16T06:40:49.837Z,11.79
2019-05-16T06:41:47.250Z,11.87
2019-05-16T06:42:47.246Z,11.91
2019-05-16T06:43:47.227Z,11.99
2019-05-16T06:44:47.230Z,11.91
2019-05-16T06:45:47.230Z,11.96
2019-05-16T06:47:00.140Z,11.94
2019-05-16T06:47:50.223Z,12.07
2019-05-16T06:48:47.176Z,12.09
2019-05-16T06:49:47.177Z,12.07
2019-05-16T06:50:47.180Z,12.10
2019-05-16T06:51:47.183Z,12.09
2019-05-16T06:52:47.129Z,12.10
2019-05-16T06:53:47.121Z,12.13
2019-05-16T06:54:47.111Z,12.16
2019-05-16T06:55:47.109Z,12.13
2019-05-16T06:56:47.098Z,12.13
2019-05-16T06:57:47.082Z,12.17
2019-05-16T06:58:50.966Z,12.21
2019-05-16T06:59:47.052Z,12.17
2019-05-16T07:00:47.051Z,12.21
2019-05-16T07:01:47.037Z,12.24
2019-05-16T07:02:47.026Z,12.35
2019-05-16T07:03:47.014Z,12.32
2019-05-16T07:04:46.998Z,12.21
2019-05-16T07:05:46.987Z,12.16
2019-05-16T07:06:55.939Z,12.22
2019-05-16T07:08:11.449Z,12.21
2019-05-16T07:09:11.446Z,12.14
2019-05-16T07:10:11.427Z,12.16
2019-05-16T07:11:11.416Z,12.17
2019-05-16T07:12:11.407Z,12.20
2019-05-16T07:13:11.396Z,12.16
2019-05-16T07:14:11.383Z,12.14
2019-05-16T07:15:12.166Z,12.16
2019-05-16T07:16:11.363Z,12.27
2019-05-16T07:17:11.351Z,12.25
2019-05-16T07:18:13.210Z,12.14
2019-05-16T07:19:11.351Z,12.14
2019-05-16T07:20:11.319Z,12.28
2019-05-16T07:21:11.305Z,12.24
2019-05-16T07:22:11.294Z,12.24
2019-05-16T07:23:11.284Z,12.29
2019-05-16T07:24:11.271Z,12.28
2019-05-16T07:25:11.260Z,12.35
2019-05-16T07:26:11.271Z,12.32
2019-05-16T07:27:12.365Z,12.35
2019-05-16T07:28:11.230Z,12.32
2019-05-16T07:29:11.257Z,12.29
2019-05-16T07:30:11.212Z,12.32
2019-05-16T07:31:18.440Z,12.34
2019-05-16T07:32:35.669Z,12.28
2019-05-16T07:33:35.656Z,12.34
2019-05-16T07:34:35.641Z,12.29
2019-05-16T07:35:35.627Z,12.29
2019-05-16T07:36:35.623Z,12.43
2019-05-16T07:37:35.606Z,12.42
2019-05-16T07:38:35.597Z,12.39
2019-05-16T07:39:38.522Z,12.42
2019-05-16T07:40:35.576Z,12.45
2019-05-16T07:41:35.568Z,12.43
2019-05-16T07:42:35.559Z,12.45
2019-05-16T07:43:35.543Z,12.40
2019-05-16T07:44:35.537Z,12.45
2019-05-16T07:45:37.830Z,12.45
2019-05-16T07:46:35.530Z,12.40
2019-05-16T07:47:35.500Z,12.31
2019-05-16T07:48:35.493Z,12.28
2019-05-16T07:49:35.479Z,12.20
2019-05-16T07:50:35.464Z,12.21
2019-05-16T07:51:35.456Z,12.24
2019-05-16T07:52:36.351Z,12.17
2019-05-16T07:53:35.432Z,12.25
2019-05-16T07:54:35.430Z,12.34
2019-05-16T07:55:35.409Z,12.31
2019-05-16T07:56:35.400Z,12.29
2019-05-16T07:57:35.388Z,12.43
2019-05-16T07:58:35.386Z,12.40
2019-05-16T07:59:35.368Z,12.35
2019-05-16T08:00:49.400Z,12.43
2019-05-16T08:02:00.517Z,12.49
2019-05-16T08:03:00.073Z,12.40
2019-05-16T08:04:00.090Z,12.46
2019-05-16T08:05:00.780Z,12.35
2019-05-16T08:06:01.667Z,12.31
2019-05-16T08:07:00.598Z,12.49
2019-05-16T08:08:00.101Z,12.43
2019-05-16T08:09:00.250Z,12.42
2019-05-16T08:09:59.990Z,12.39
2019-05-16T08:11:01.533Z,12.47
2019-05-16T08:12:02.292Z,12.46
2019-05-16T08:13:03.391Z,12.43
2019-05-16T08:14:01.033Z,12.45
2019-05-16T08:16:01.680Z,12.47
2019-05-16T08:17:01.105Z,12.50
2019-05-16T08:18:03.129Z,12.50
2019-05-16T08:19:00.866Z,12.49
2019-05-16T08:20:00.338Z,12.40
2019-05-16T08:21:00.785Z,12.46
2019-05-16T08:22:01.353Z,12.39
2019-05-16T08:23:00.858Z,12.47
2019-05-16T08:24:05.678Z,12.43
2019-05-16T08:25:24.047Z,12.39
2019-05-16T08:26:24.037Z,12.45
2019-05-16T08:27:24.026Z,12.45
2019-05-16T08:28:24.026Z,12.47
2019-05-16T08:29:24.000Z,12.50
2019-05-16T08:30:23.990Z,12.46
2019-05-16T08:31:23.987Z,12.46
2019-05-16T08:32:23.975Z,12.49
2019-05-16T08:33:23.985Z,12.61
2019-05-16T08:34:23.962Z,12.60
2019-05-16T08:35:23.946Z,12.60
2019-05-16T08:36:23.929Z,12.65
2019-05-16T08:37:37.043Z,12.66
2019-05-16T08:38:51.174Z,12.53
2019-05-16T08:39:50.985Z,12.53
2019-05-16T08:41:06.004Z,12.58
2019-05-16T08:41:51.885Z,12.54
2019-05-16T08:42:51.577Z,12.57
2019-05-16T08:43:52.585Z,12.60
2019-05-16T08:44:51.415Z,12.57
2019-05-16T08:45:50.792Z,12.57
2019-05-16T08:46:54.819Z,12.54
2019-05-16T08:48:12.809Z,12.57
2019-05-16T08:49:12.910Z,12.58
2019-05-16T08:50:04.936Z,12.42
2019-05-16T08:50:14.725Z,12.60
2019-05-16T08:51:12.780Z,12.66
2019-05-16T08:52:12.771Z,12.66
2019-05-16T08:53:13.815Z,12.58
2019-05-16T08:54:13.686Z,12.65
2019-05-16T08:55:13.672Z,12.76
2019-05-16T08:56:13.369Z,12.61
2019-05-16T08:57:25.999Z,12.76
2019-05-16T08:58:40.953Z,12.61
2019-05-16T08:59:37.163Z,12.71
2019-05-16T09:00:37.183Z,12.73
2019-05-16T09:01:37.142Z,12.84
2019-05-16T09:02:37.260Z,12.80
2019-05-16T09:03:40.567Z,12.79
2019-05-16T09:04:37.107Z,12.79
2019-05-16T09:05:37.093Z,12.84
2019-05-16T09:06:37.086Z,12.87
2019-05-16T09:07:37.103Z,12.93
2019-05-16T09:08:37.056Z,12.95
2019-05-16T09:09:44.408Z,13.05
2019-05-16T09:11:09.484Z,13.04
2019-05-16T09:12:27.818Z,13.04
2019-05-16T09:13:27.918Z,13.02
2019-05-16T09:14:27.617Z,13.05
2019-05-16T09:15:27.408Z,13.04
2019-05-16T09:16:27.533Z,13.04
2019-05-16T09:17:27.698Z,13.06
2019-05-16T09:18:28.954Z,13.02
2019-05-16T09:19:27.556Z,13.02
2019-05-16T09:20:28.063Z,12.99
2019-05-16T09:21:27.475Z,12.95
2019-05-16T09:22:28.215Z,12.96
2019-05-16T09:23:26.766Z,12.95
2019-05-16T09:24:27.233Z,13.01
2019-05-16T09:25:27.522Z,13.02
2019-05-16T09:26:27.669Z,13.04
2019-05-16T09:27:27.323Z,13.09
2019-05-16T09:28:28.240Z,13.04
2019-05-16T09:29:27.250Z,12.95
2019-05-16T09:30:27.488Z,13.01
2019-05-16T09:31:27.447Z,12.95
2019-05-16T09:32:27.930Z,12.91
2019-05-16T09:33:27.022Z,13.02
2019-05-16T09:34:34.750Z,12.87
2019-05-16T09:35:50.199Z,12.99
2019-05-16T09:36:50.193Z,12.95
2019-05-16T09:37:50.174Z,12.99
2019-05-16T09:38:50.162Z,12.98
2019-05-16T09:39:50.151Z,13.01
2019-05-16T09:40:50.144Z,12.96
2019-05-16T09:41:54.895Z,12.98
2019-05-16T09:43:17.739Z,13.05
2019-05-16T09:44:14.583Z,13.09
2019-05-16T09:45:17.128Z,13.05
2019-05-16T09:46:16.994Z,13.17
2019-05-16T09:47:17.366Z,13.14
2019-05-16T09:48:14.535Z,13.29
2019-05-16T09:49:23.192Z,13.35
2019-05-16T09:50:39.010Z,13.39
2019-05-16T09:51:39.594Z,13.41
2019-05-16T09:52:38.984Z,13.44
2019-05-16T09:53:38.976Z,13.44
2019-05-16T09:54:38.956Z,13.45
2019-05-16T09:55:38.939Z,13.52
2019-05-16T09:56:38.928Z,13.46
2019-05-16T09:57:38.918Z,13.56
2019-05-16T09:58:38.906Z,13.53
2019-05-16T09:59:38.894Z,13.45
2019-05-16T10:00:38.884Z,13.41
2019-05-16T10:01:38.879Z,13.53
2019-05-16T10:02:38.866Z,13.52
2019-05-16T10:03:39.048Z,13.52
2019-05-16T10:04:38.836Z,13.50
2019-05-16T10:05:38.821Z,13.66
2019-05-16T10:06:38.809Z,13.52
2019-05-16T10:07:39.195Z,13.53
2019-05-16T10:08:38.790Z,13.56
2019-05-16T10:09:45.011Z,13.63
2019-05-16T10:11:03.253Z,13.59
2019-05-16T10:12:13.214Z,13.59
2019-05-16T10:13:28.089Z,13.63
2019-05-16T10:14:27.706Z,13.66
2019-05-16T10:15:27.696Z,13.63
2019-05-16T10:16:27.702Z,13.66
2019-05-16T10:17:27.677Z,13.60
2019-05-16T10:18:28.070Z,13.64
2019-05-16T10:19:27.739Z,13.62
2019-05-16T10:20:27.638Z,13.71
2019-05-16T10:21:27.626Z,13.79
2019-05-16T10:22:27.615Z,13.74
2019-05-16T10:23:28.466Z,13.74
2019-05-16T10:24:27.600Z,13.71
2019-05-16T10:25:27.948Z,13.74
2019-05-16T10:26:27.960Z,13.74
2019-05-16T10:27:27.564Z,13.75
2019-05-16T10:28:27.846Z,13.85
2019-05-16T10:29:27.689Z,13.84
2019-05-16T10:30:27.539Z,13.96
2019-05-16T10:31:41.552Z,14.08
2019-05-16T10:32:51.982Z,13.99
2019-05-16T10:33:51.979Z,14.11
2019-05-16T10:34:53.959Z,14.11
2019-05-16T10:35:51.950Z,14.26
2019-05-16T10:36:51.944Z,14.21
2019-05-16T10:37:51.927Z,14.33
2019-05-16T10:38:51.919Z,14.28
2019-05-16T10:39:51.903Z,14.36
2019-05-16T10:40:51.895Z,14.34
2019-05-16T10:41:51.885Z,14.36
2019-05-16T10:42:51.869Z,14.38
2019-05-16T10:43:51.864Z,14.41
2019-05-16T10:44:51.847Z,14.38
2019-05-16T10:45:53.671Z,14.33
2019-05-16T10:46:51.826Z,14.48
2019-05-16T10:47:51.818Z,14.51
2019-05-16T10:48:51.804Z,14.45
2019-05-16T10:49:51.792Z,14.46
2019-05-16T10:50:51.926Z,14.51
2019-05-16T10:51:51.768Z,14.46
2019-05-16T10:53:13.321Z,14.51
2019-05-16T10:54:05.890Z,14.48
2019-05-16T10:55:17.630Z,14.53
2019-05-16T10:56:16.251Z,14.63
2019-05-16T10:57:16.362Z,14.61
2019-05-16T10:58:33.011Z,14.63
2019-05-16T11:00:06.532Z,14.63
2019-05-16T11:01:07.402Z,14.63
2019-05-16T11:02:07.373Z,14.61
2019-05-16T11:03:06.508Z,14.63
2019-05-16T11:04:07.314Z,14.74
2019-05-16T11:05:22.652Z,14.77
2019-05-16T11:06:29.625Z,14.77
2019-05-16T11:07:29.957Z,14.82
2019-05-16T11:08:29.519Z,14.77
2019-05-16T11:09:29.508Z,14.85
2019-05-16T11:10:29.936Z,14.76
2019-05-16T11:11:29.487Z,14.64
2019-05-16T11:12:46.133Z,14.69
2019-05-16T11:13:30.480Z,14.61
2019-05-16T11:14:29.453Z,14.64
2019-05-16T11:15:29.449Z,14.66
2019-05-16T11:16:29.429Z,14.59
2019-05-16T11:17:29.426Z,14.66
2019-05-16T11:18:29.411Z,14.66
2019-05-16T11:19:29.396Z,14.66
2019-05-16T11:20:29.414Z,14.61
2019-05-16T11:21:29.383Z,14.71
2019-05-16T11:22:29.898Z,14.66
2019-05-16T11:23:31.456Z,14.73
2019-05-16T11:24:29.542Z,14.77
2019-05-16T11:25:32.500Z,14.86
2019-05-16T11:26:30.175Z,14.81
2019-05-16T11:27:29.308Z,14.88
2019-05-16T11:28:29.316Z,14.86
2019-05-16T11:29:29.288Z,14.89
2019-05-16T11:30:29.298Z,14.92
2019-05-16T11:31:29.265Z,14.91
2019-05-16T11:32:29.251Z,14.88
2019-05-16T11:33:29.257Z,14.89
2019-05-16T11:34:29.229Z,14.86
2019-05-16T11:35:29.220Z,14.86
2019-05-16T11:36:29.208Z,14.76
2019-05-16T11:37:29.197Z,14.78
2019-05-16T11:38:29.190Z,14.78
2019-05-16T11:39:29.181Z,14.95
2019-05-16T11:40:30.286Z,14.84
2019-05-16T11:41:29.153Z,14.84
2019-05-16T11:42:29.144Z,14.85
2019-05-16T11:43:29.133Z,14.78
2019-05-16T11:44:29.219Z,14.74
2019-05-16T11:45:29.108Z,14.81
2019-05-16T11:46:29.112Z,14.74
2019-05-16T11:47:29.089Z,14.91
2019-05-16T11:48:29.742Z,14.94
2019-05-16T11:49:29.064Z,14.92
2019-05-16T11:50:29.056Z,14.98
2019-05-16T11:51:29.046Z,15.04
2019-05-16T11:52:29.047Z,15.14
2019-05-16T11:53:29.020Z,15.25
2019-05-16T11:54:29.012Z,15.19
2019-05-16T11:55:34.253Z,15.37
2019-05-16T11:56:53.480Z,15.35
2019-05-16T11:57:53.464Z,15.40
2019-05-16T11:58:53.454Z,15.52
2019-05-16T11:59:53.443Z,15.58
2019-05-16T12:00:53.433Z,15.60
2019-05-16T12:01:53.419Z,15.78
2019-05-16T12:02:53.411Z,15.76
2019-05-16T12:03:53.405Z,15.70
2019-05-16T12:04:53.388Z,15.80
2019-05-16T12:05:53.377Z,15.84
2019-05-16T12:06:53.368Z,15.90
2019-05-16T12:07:56.966Z,16.00
2019-05-16T12:08:53.345Z,15.93
2019-05-16T12:09:55.753Z,15.93
2019-05-16T12:10:53.325Z,15.93
2019-05-16T12:12:02.695Z,15.91
2019-05-16T12:13:27.400Z,15.77
2019-05-16T12:14:42.278Z,15.68
2019-05-16T12:15:42.265Z,15.68
2019-05-16T12:16:42.250Z,15.78
2019-05-16T12:17:42.238Z,15.69
2019-05-16T12:18:42.228Z,15.69
2019-05-16T12:19:44.121Z,15.60
2019-05-16T12:20:42.215Z,15.60
2019-05-16T12:21:42.193Z,15.46
2019-05-16T12:22:42.182Z,15.42
2019-05-16T12:23:42.174Z,15.46
2019-05-16T12:24:42.159Z,15.44
2019-05-16T12:25:42.151Z,15.52
2019-05-16T12:26:42.141Z,15.54
2019-05-16T12:27:42.726Z,15.58
2019-05-16T12:28:42.133Z,15.52
2019-05-16T12:29:42.106Z,15.35
2019-05-16T12:30:42.093Z,15.42
2019-05-16T12:31:55.259Z,15.34
2019-05-16T12:32:43.090Z,15.40
2019-05-16T12:33:42.062Z,15.37
2019-05-16T12:34:42.050Z,15.39
2019-05-16T12:35:42.139Z,15.34
2019-05-16T12:36:42.082Z,15.37
2019-05-16T12:37:42.016Z,15.32
2019-05-16T12:38:42.005Z,15.31
2019-05-16T12:39:42.002Z,15.34
2019-05-16T12:40:41.982Z,15.34
2019-05-16T12:41:41.972Z,15.24
2019-05-16T12:42:41.965Z,15.21
2019-05-16T12:43:48.849Z,15.21
2019-05-16T12:45:07.008Z,15.25
2019-05-16T12:46:07.452Z,15.18
2019-05-16T12:47:07.656Z,15.14
2019-05-16T12:48:06.953Z,15.14
2019-05-16T12:49:06.999Z,15.19
2019-05-16T12:50:07.240Z,15.10
2019-05-16T12:51:08.279Z,15.07
2019-05-16T12:52:06.883Z,15.09
2019-05-16T12:53:08.140Z,15.04
2019-05-16T12:54:07.530Z,15.03
2019-05-16T12:55:06.320Z,15.04
2019-05-16T12:56:06.303Z,15.10
2019-05-16T12:57:06.296Z,15.02
2019-05-16T12:58:14.036Z,14.95
2019-05-16T12:59:07.291Z,14.81
2019-05-16T13:00:07.420Z,14.66
2019-05-16T13:01:07.778Z,14.66
2019-05-16T13:02:07.351Z,14.66
2019-05-16T13:03:07.257Z,14.67
2019-05-16T13:04:06.237Z,14.74
2019-05-16T13:05:06.209Z,14.82
2019-05-16T13:06:06.201Z,14.86
2019-05-16T13:07:09.305Z,14.88
2019-05-16T13:08:06.375Z,14.92
2019-05-16T13:09:07.034Z,14.91
2019-05-16T13:10:06.659Z,14.94
2019-05-16T13:11:07.066Z,14.95
2019-05-16T13:12:06.939Z,15.00
2019-05-16T13:13:07.847Z,15.06
2019-05-16T13:14:10.128Z,15.02
2019-05-16T13:15:07.070Z,15.00
2019-05-16T13:16:07.620Z,14.96
2019-05-16T13:17:07.317Z,14.89
2019-05-16T13:18:07.974Z,14.91
2019-05-16T13:19:07.051Z,14.78
2019-05-16T13:20:07.780Z,14.91
2019-05-16T13:21:06.824Z,15.00
2019-05-16T13:22:07.369Z,14.96
2019-05-16T13:23:13.928Z,14.88
2019-05-16T13:24:07.081Z,14.94
2019-05-16T13:25:07.360Z,14.95
2019-05-16T13:26:07.303Z,15.06
2019-05-16T13:27:08.425Z,15.10
2019-05-16T13:28:08.193Z,15.04
2019-05-16T13:29:07.293Z,15.10
2019-05-16T13:30:07.217Z,15.07
2019-05-16T13:31:07.744Z,15.00
2019-05-16T13:32:07.737Z,15.06
2019-05-16T13:33:07.245Z,15.02
2019-05-16T13:34:07.433Z,15.07
2019-05-16T13:35:07.679Z,15.03
2019-05-16T13:36:07.518Z,14.92
2019-05-16T13:37:07.568Z,14.94
2019-05-16T13:38:07.886Z,14.92
2019-05-16T13:39:08.017Z,14.84
2019-05-16T13:40:07.886Z,14.74
2019-05-16T13:41:07.459Z,14.82
2019-05-16T13:42:07.995Z,14.85
2019-05-16T13:43:09.438Z,14.91
2019-05-16T13:44:17.706Z,14.88
2019-05-16T13:45:07.130Z,14.96
2019-05-16T13:46:07.115Z,14.95
2019-05-16T13:47:07.722Z,15.00
2019-05-16T13:48:08.062Z,15.00
2019-05-16T13:49:07.236Z,14.96
2019-05-16T13:50:11.648Z,14.92
2019-05-16T13:51:14.693Z,14.94
2019-05-16T13:52:07.309Z,14.88
2019-05-16T13:53:07.811Z,14.88
2019-05-16T13:54:07.098Z,14.95
2019-05-16T13:55:07.037Z,14.98
2019-05-16T13:56:11.301Z,14.98
2019-05-16T13:57:30.109Z,15.03
2019-05-16T13:58:30.093Z,15.10
2019-05-16T13:59:30.083Z,15.14
2019-05-16T14:00:30.077Z,15.11
2019-05-16T14:01:30.059Z,15.11
2019-05-16T14:02:30.055Z,15.21
2019-05-16T14:03:30.041Z,15.21
2019-05-16T14:04:30.025Z,15.13
2019-05-16T14:05:30.017Z,15.16
2019-05-16T14:06:30.029Z,15.16
2019-05-16T14:07:29.993Z,15.24
2019-05-16T14:08:29.981Z,15.19
2019-05-16T14:09:29.972Z,15.03
2019-05-16T14:10:30.144Z,15.10
2019-05-16T14:11:29.954Z,15.09
2019-05-16T14:12:29.937Z,15.09
2019-05-16T14:13:29.927Z,15.06
2019-05-16T14:14:37.204Z,15.06
2019-05-16T14:15:54.381Z,15.10
2019-05-16T14:16:54.368Z,15.07
2019-05-16T14:17:56.655Z,15.18
2019-05-16T14:18:54.347Z,15.19
2019-05-16T14:19:57.136Z,15.18
2019-05-16T14:20:54.333Z,15.21
2019-05-16T14:21:56.878Z,15.22
2019-05-16T14:22:57.154Z,15.24
2019-05-16T14:23:56.760Z,15.24
2019-05-16T14:24:54.282Z,15.09
2019-05-16T14:25:54.267Z,15.13
2019-05-16T14:26:54.254Z,15.16
2019-05-16T14:27:56.680Z,15.19
2019-05-16T14:28:57.341Z,15.10
2019-05-16T14:29:54.228Z,15.11
2019-05-16T14:30:54.211Z,15.26
2019-05-16T14:31:56.619Z,15.21
2019-05-16T14:32:56.163Z,15.22
2019-05-16T14:33:56.789Z,15.28
2019-05-16T14:34:54.172Z,15.31
2019-05-16T14:35:56.293Z,15.28
2019-05-16T14:36:54.149Z,15.28
2019-05-16T14:37:57.514Z,15.28
2019-05-16T14:39:19.716Z,15.24
2019-05-16T14:40:18.600Z,15.21
2019-05-16T14:41:18.584Z,15.22
2019-05-16T14:42:18.594Z,15.21
2019-05-16T14:43:18.566Z,15.32
2019-05-16T14:44:18.686Z,15.25
2019-05-16T14:45:18.545Z,15.26
2019-05-16T14:46:18.669Z,15.34
2019-05-16T14:47:18.516Z,15.35
2019-05-16T14:48:18.616Z,15.37
2019-05-16T14:49:18.493Z,15.43
2019-05-16T14:50:18.481Z,15.32
2019-05-16T14:51:18.473Z,15.35
2019-05-16T14:52:18.456Z,15.44
2019-05-16T14:53:18.449Z,15.40
2019-05-16T14:54:18.434Z,15.39
2019-05-16T14:55:18.919Z,15.37
2019-05-16T14:56:18.412Z,15.26
2019-05-16T14:57:18.400Z,15.26
2019-05-16T14:58:18.392Z,15.29
2019-05-16T14:59:18.385Z,15.26
2019-05-16T15:00:18.942Z,15.22
2019-05-16T15:01:18.362Z,15.18
2019-05-16T15:02:18.365Z,15.24
2019-05-16T15:03:18.442Z,15.19
2019-05-16T15:04:18.324Z,15.32
2019-05-16T15:05:18.324Z,15.29
2019-05-16T15:06:18.491Z,15.37
2019-05-16T15:07:19.376Z,15.35
2019-05-16T15:08:18.408Z,15.29
2019-05-16T15:09:18.270Z,15.19
2019-05-16T15:10:18.262Z,15.25
2019-05-16T15:11:18.280Z,15.24
2019-05-16T15:12:18.234Z,15.24
2019-05-16T15:13:18.242Z,15.18
2019-05-16T15:14:18.216Z,15.19
2019-05-16T15:15:24.115Z,15.21
2019-05-16T15:16:19.208Z,15.13
2019-05-16T15:17:18.177Z,15.19
2019-05-16T15:18:18.170Z,15.13
2019-05-16T15:19:18.156Z,15.06
2019-05-16T15:20:18.458Z,15.07
2019-05-16T15:21:18.134Z,15.07
2019-05-16T15:22:18.121Z,15.19
2019-05-16T15:23:18.115Z,15.24
2019-05-16T15:24:18.106Z,15.24
2019-05-16T15:25:18.098Z,15.21
2019-05-16T15:26:18.456Z,15.19
2019-05-16T15:27:18.066Z,15.18
2019-05-16T15:28:18.056Z,15.29
2019-05-16T15:29:18.048Z,15.31
2019-05-16T15:30:18.039Z,15.32
2019-05-16T15:31:18.026Z,15.42
2019-05-16T15:32:18.011Z,15.39
2019-05-16T15:33:19.793Z,15.39
2019-05-16T15:34:17.988Z,15.39
2019-05-16T15:35:18.427Z,15.40
2019-05-16T15:36:17.964Z,15.43
2019-05-16T15:37:17.953Z,15.40
2019-05-16T15:38:17.940Z,15.40
2019-05-16T15:39:17.931Z,15.42
2019-05-16T15:40:18.104Z,15.42
2019-05-16T15:41:17.912Z,15.37
2019-05-16T15:42:18.305Z,15.40
2019-05-16T15:43:18.706Z,15.35
2019-05-16T15:44:17.874Z,15.28
2019-05-16T15:45:34.346Z,15.34
2019-05-16T15:46:18.879Z,15.31
2019-05-16T15:47:17.843Z,15.39
2019-05-16T15:48:17.830Z,15.25
2019-05-16T15:49:17.819Z,15.26
2019-05-16T15:50:18.403Z,15.26
2019-05-16T15:51:21.036Z,15.29
2019-05-16T15:52:17.857Z,15.34
2019-05-16T15:53:17.796Z,15.19
2019-05-16T15:54:17.994Z,15.18
2019-05-16T15:55:18.096Z,15.34
2019-05-16T15:56:17.932Z,15.25
2019-05-16T15:57:17.785Z,15.28
2019-05-16T15:58:18.197Z,15.32
2019-05-16T15:59:18.115Z,15.26
2019-05-16T16:00:18.141Z,15.22
2019-05-16T16:01:18.520Z,15.11
2019-05-16T16:02:17.842Z,15.19
2019-05-16T16:03:17.862Z,15.07
2019-05-16T16:04:17.655Z,15.07
2019-05-16T16:05:18.101Z,15.11
2019-05-16T16:06:17.940Z,15.11
2019-05-16T16:07:18.260Z,15.18
2019-05-16T16:08:18.377Z,15.18
2019-05-16T16:09:17.596Z,15.10
2019-05-16T16:10:17.586Z,15.18
2019-05-16T16:11:17.573Z,15.13
2019-05-16T16:12:17.563Z,15.04
2019-05-16T16:13:19.812Z,15.07
2019-05-16T16:14:17.546Z,15.07
2019-05-16T16:15:17.627Z,15.07
2019-05-16T16:16:17.562Z,15.04
2019-05-16T16:17:17.789Z,15.03
2019-05-16T16:18:21.400Z,15.02
2019-05-16T16:19:17.643Z,14.94
2019-05-16T16:20:17.477Z,15.02
2019-05-16T16:21:17.467Z,15.06
2019-05-16T16:22:17.858Z,15.10
2019-05-16T16:23:17.913Z,15.13
2019-05-16T16:24:18.982Z,15.13
2019-05-16T16:25:17.785Z,15.11
2019-05-16T16:26:17.861Z,15.16
2019-05-16T16:27:17.396Z,15.21
2019-05-16T16:28:17.897Z,15.16
2019-05-16T16:29:17.380Z,15.21
2019-05-16T16:30:18.639Z,15.13
2019-05-16T16:31:17.352Z,15.10
2019-05-16T16:32:17.463Z,15.03
2019-05-16T16:33:25.292Z,15.07
2019-05-16T16:34:18.336Z,15.03
2019-05-16T16:35:17.482Z,15.11
2019-05-16T16:36:17.314Z,15.03
2019-05-16T16:37:17.290Z,15.04
2019-05-16T16:38:17.277Z,14.96
2019-05-16T16:39:17.264Z,14.94
2019-05-16T16:40:17.697Z,14.95
2019-05-16T16:41:17.243Z,15.00
2019-05-16T16:42:17.230Z,14.94
2019-05-16T16:43:17.223Z,14.94
2019-05-16T16:44:17.767Z,14.82
2019-05-16T16:45:17.199Z,14.86
2019-05-16T16:46:17.198Z,14.91
2019-05-16T16:47:17.742Z,14.85
2019-05-16T16:48:17.379Z,14.91
2019-05-16T16:49:17.474Z,14.85
2019-05-16T16:50:17.282Z,14.86
2019-05-16T16:51:17.815Z,14.81
2019-05-16T16:52:17.120Z,14.94
2019-05-16T16:53:17.623Z,14.77
2019-05-16T16:54:17.155Z,14.77
2019-05-16T16:55:17.167Z,14.69
2019-05-16T16:56:17.094Z,14.78
2019-05-16T16:57:17.721Z,14.71
2019-05-16T16:58:17.668Z,14.77
2019-05-16T16:59:17.443Z,14.77
2019-05-16T17:00:17.647Z,14.76
2019-05-16T17:01:17.494Z,14.82
2019-05-16T17:02:17.240Z,14.74
2019-05-16T17:03:16.999Z,14.70
2019-05-16T17:04:17.590Z,14.77
2019-05-16T17:05:17.137Z,14.74
2019-05-16T17:06:17.650Z,14.69
2019-05-16T17:07:16.957Z,14.78
2019-05-16T17:08:17.040Z,14.78
2019-05-16T17:09:16.934Z,14.73
2019-05-16T17:10:16.920Z,14.66
2019-05-16T17:11:16.910Z,14.52
2019-05-16T17:12:16.902Z,14.51
2019-05-16T17:13:17.088Z,14.40
2019-05-16T17:14:17.316Z,14.49
2019-05-16T17:15:17.151Z,14.46
2019-05-16T17:16:22.989Z,14.45
2019-05-16T17:17:41.323Z,14.56
2019-05-16T17:18:41.310Z,14.49
2019-05-16T17:19:41.305Z,14.51
2019-05-16T17:20:41.289Z,14.49
2019-05-16T17:21:41.276Z,14.51
2019-05-16T17:22:41.265Z,14.53
2019-05-16T17:23:41.253Z,14.48
2019-05-16T17:24:41.243Z,14.67
2019-05-16T17:25:41.236Z,14.61
2019-05-16T17:26:41.223Z,14.69
2019-05-16T17:27:41.214Z,14.55
2019-05-16T17:28:41.214Z,14.48
2019-05-16T17:29:41.190Z,14.52
2019-05-16T17:30:41.179Z,14.59
2019-05-16T17:31:41.170Z,14.63
2019-05-16T17:32:41.154Z,14.63
2019-05-16T17:33:41.143Z,14.70
2019-05-16T17:34:41.134Z,14.64
2019-05-16T17:35:41.134Z,14.64
2019-05-16T17:36:41.109Z,14.67
2019-05-16T17:37:41.103Z,14.66
2019-05-16T17:38:41.088Z,14.63
2019-05-16T17:39:41.075Z,14.61
2019-05-16T17:40:41.066Z,14.53
2019-05-16T17:41:41.053Z,14.49
2019-05-16T17:42:41.046Z,14.49
2019-05-16T17:43:41.031Z,14.51
2019-05-16T17:44:41.025Z,14.49
2019-05-16T17:45:41.016Z,14.52
2019-05-16T17:46:41.160Z,14.51
2019-05-16T17:47:40.992Z,14.53
2019-05-16T17:48:40.986Z,14.48
2019-05-16T17:49:40.969Z,14.64
2019-05-16T17:50:40.954Z,14.58
2019-05-16T17:51:40.945Z,14.53
2019-05-16T17:52:40.934Z,14.51
2019-05-16T17:53:40.921Z,14.59
2019-05-16T17:54:40.919Z,14.67
2019-05-16T17:55:40.908Z,14.61
2019-05-16T17:56:40.890Z,14.63
2019-05-16T17:57:40.880Z,14.56
2019-05-16T17:58:40.867Z,14.64
2019-05-16T17:59:40.863Z,14.52
2019-05-16T18:00:40.848Z,14.55
2019-05-16T18:01:40.837Z,14.53
2019-05-16T18:02:40.822Z,14.49
2019-05-16T18:03:40.813Z,14.51
2019-05-16T18:04:41.271Z,14.53
2019-05-16T18:05:40.791Z,14.52
2019-05-16T18:06:40.786Z,14.59
2019-05-16T18:07:40.767Z,14.52
2019-05-16T18:08:40.758Z,14.45
2019-05-16T18:09:43.040Z,14.34
2019-05-16T18:10:40.739Z,14.15
2019-05-16T18:11:40.721Z,13.89
2019-05-16T18:12:40.713Z,13.78
2019-05-16T18:13:40.699Z,13.71
2019-05-16T18:14:40.690Z,13.64
2019-05-16T18:15:40.684Z,13.64
2019-05-16T18:16:52.357Z,13.66
2019-05-16T18:18:07.057Z,13.70